Time;durP1;ratioP1;P1;durP2;ratioP2;P2;SDS_P1;SDS_P2;PMS_P1;PMS_P2;Temp;Humidity;BMP_temperature;BMP_pressure;BME280_temperature;BME280_humidity;BME280_pressure;Samples;Min_cycle;Max_cycle;Signal;HPM_P1;HPM_P2
2022/03/09 00:01:08;;;;;;;8.70;3.70;;;;;;;;;;4911804;29;20135;-66
2022/03/09 00:03:36;;;;;;;13.80;4.43;;;;;;;;;;4907277;29;20056;-66
2022/03/09 00:06:08;;;;;;;7.53;3.90;;;;;;;;;;4907631;29;20060;-65
2022/03/09 00:08:38;;;;;;;12.25;4.85;;;;;;;;;;4912639;29;20086;-66
2022/03/09 00:11:07;;;;;;;9.38;3.88;;;;;;;;;;4928180;29;20052;-66
2022/03/09 00:13:35;;;;;;;9.43;4.43;;;;;;;;;;4927356;29;20047;-66
2022/03/09 00:16:07;;;;;;;8.50;4.07;;;;;;;;;;4930380;29;20079;-66
2022/03/09 00:18:36;;;;;;;7.85;4.22;;;;;;;;;;4933336;29;20134;-66
2022/03/09 00:21:08;;;;;;;9.82;3.80;;;;;;;;;;4930086;29;20155;-66
2022/03/09 00:23:36;;;;;;;14.45;4.10;;;;;;;;;;4928340;29;20047;-66
2022/03/09 00:26:09;;;;;;;10.40;4.43;;;;;;;;;;4931345;29;20119;-65
2022/03/09 00:28:38;;;;;;;9.02;4.30;;;;;;;;;;4929893;29;20055;-66
2022/03/09 00:31:09;;;;;;;10.40;3.65;;;;;;;;;;4930610;29;20118;-66
2022/03/09 00:33:38;;;;;;;7.90;3.88;;;;;;;;;;4929784;29;20135;-65
2022/03/09 00:36:07;;;;;;;10.30;4.05;;;;;;;;;;4929924;29;20142;-65
2022/03/09 00:38:36;;;;;;;12.82;4.38;;;;;;;;;;4931264;29;20048;-65
2022/03/09 00:41:07;;;;;;;10.02;4.30;;;;;;;;;;4926536;29;20547;-65
2022/03/09 00:43:37;;;;;;;8.63;4.05;;;;;;;;;;4930506;29;20139;-66
2022/03/09 00:46:09;;;;;;;6.20;3.63;;;;;;;;;;4929705;29;20218;-66
2022/03/09 00:48:39;;;;;;;7.68;3.88;;;;;;;;;;4929541;29;20071;-66
2022/03/09 00:51:08;;;;;;;9.52;3.28;;;;;;;;;;4928528;29;20079;-66
2022/03/09 00:53:38;;;;;;;8.98;4.32;;;;;;;;;;4923855;29;20137;-65
2022/03/09 00:56:07;;;;;;;9.75;3.78;;;;;;;;;;4930228;29;20130;-66
2022/03/09 00:58:38;;;;;;;8.75;4.40;;;;;;;;;;4928462;29;20131;-65
2022/03/09 01:01:06;;;;;;;8.60;3.85;;;;;;;;;;4929798;29;20055;-66
2022/03/09 01:03:35;;;;;;;6.47;3.63;;;;;;;;;;4931474;29;20070;-66
2022/03/09 01:06:06;;;;;;;8.32;3.90;;;;;;;;;;4929314;29;20070;-65
2022/03/09 01:08:36;;;;;;;9.80;3.75;;;;;;;;;;4930139;29;20072;-65
2022/03/09 01:11:07;;;;;;;9.40;4.70;;;;;;;;;;4926290;29;20142;-66
2022/03/09 01:13:35;;;;;;;9.75;4.32;;;;;;;;;;4928566;29;20059;-65
2022/03/09 01:16:08;;;;;;;9.80;4.28;;;;;;;;;;4925720;29;20733;-65
2022/03/09 01:18:37;;;;;;;10.80;5.00;;;;;;;;;;4926404;29;20147;-66
2022/03/09 01:21:08;;;;;;;8.32;4.00;;;;;;;;;;4928562;29;20570;-65
2022/03/09 01:23:36;;;;;;;10.18;3.88;;;;;;;;;;4928138;29;20058;-65
2022/03/09 01:26:08;;;;;;;12.60;4.78;;;;;;;;;;4928512;29;20055;-65
2022/03/09 01:28:37;;;;;;;10.30;4.53;;;;;;;;;;4930716;29;20060;-66
2022/03/09 01:31:10;;;;;;;9.18;3.78;;;;;;;;;;4932547;29;20131;-66
2022/03/09 01:33:38;;;;;;;8.25;3.88;;;;;;;;;;4930943;29;20048;-65
2022/03/09 01:36:07;;;;;;;9.32;4.63;;;;;;;;;;4931631;29;20052;-65
2022/03/09 01:38:36;;;;;;;9.85;4.50;;;;;;;;;;4933095;29;20044;-65
2022/03/09 01:41:07;;;;;;;8.45;4.50;;;;;;;;;;4934413;29;20123;-65
2022/03/09 01:43:35;;;;;;;8.80;4.00;;;;;;;;;;4932274;29;20131;-66
2022/03/09 01:46:07;;;;;;;11.10;4.13;;;;;;;;;;4934513;29;20098;-66
2022/03/09 01:48:38;;;;;;;10.15;4.53;;;;;;;;;;4930767;29;20488;-66
2022/03/09 01:51:06;;;;;;;9.35;3.80;;;;;;;;;;4911379;29;20131;-65
2022/03/09 01:53:37;;;;;;;7.72;3.72;;;;;;;;;;4911628;29;20083;-65
2022/03/09 01:56:08;;;;;;;8.85;3.88;;;;;;;;;;4915176;29;20532;-65
2022/03/09 01:58:37;;;;;;;7.72;3.72;;;;;;;;;;4913792;29;20127;-66
2022/03/09 02:01:08;;;;;;;8.10;4.10;;;;;;;;;;4909963;29;20052;-65
2022/03/09 02:03:38;;;;;;;12.98;4.70;;;;;;;;;;4908942;29;20410;-65
2022/03/09 02:06:08;;;;;;;9.55;3.78;;;;;;;;;;4914092;29;20052;-65
2022/03/09 02:11:28;;;;;;;5.88;3.42;;;;;;;;;;4910100;29;20054;-65
2022/03/09 02:13:56;;;;;;;9.05;4.15;;;;;;;;;;4913976;29;20087;-65
2022/03/09 02:16:25;;;;;;;8.75;3.95;;;;;;;;;;4914649;29;20550;-65
2022/03/09 02:18:55;;;;;;;10.75;3.63;;;;;;;;;;4913651;29;20054;-65
2022/03/09 02:21:25;;;;;;;16.45;4.78;;;;;;;;;;4914557;29;20048;-65
2022/03/09 02:23:55;;;;;;;9.13;4.90;;;;;;;;;;4910795;29;20155;-65
2022/03/09 02:26:23;;;;;;;10.70;4.53;;;;;;;;;;4913560;29;20472;-65
2022/03/09 02:28:52;;;;;;;8.23;4.43;;;;;;;;;;4912450;29;20550;-65
2022/03/09 02:31:20;;;;;;;8.60;4.10;;;;;;;;;;4913418;29;20066;-65
2022/03/09 02:33:48;;;;;;;9.63;4.38;;;;;;;;;;4910932;29;20070;-65
2022/03/09 02:36:16;;;;;;;8.93;4.50;;;;;;;;;;4914280;29;20047;-65
2022/03/09 02:38:45;;;;;;;9.90;4.10;;;;;;;;;;4911474;29;20054;-65
2022/03/09 02:41:14;;;;;;;9.20;4.25;;;;;;;;;;4905530;29;20079;-65
2022/03/09 02:43:43;;;;;;;7.55;4.65;;;;;;;;;;4912520;29;20048;-65
2022/03/09 02:46:11;;;;;;;10.70;4.53;;;;;;;;;;4911401;29;20048;-65
2022/03/09 02:48:40;;;;;;;10.77;4.65;;;;;;;;;;4914007;29;20095;-66
2022/03/09 02:51:11;;;;;;;8.68;3.85;;;;;;;;;;4913394;29;20051;-65
2022/03/09 02:53:40;;;;;;;9.93;4.70;;;;;;;;;;4908586;29;20128;-65
2022/03/09 02:56:08;;;;;;;10.50;4.88;;;;;;;;;;4912332;29;20056;-66
2022/03/09 02:58:39;;;;;;;10.63;4.70;;;;;;;;;;4911220;29;20060;-66
2022/03/09 03:01:07;;;;;;;10.15;4.13;;;;;;;;;;4912796;29;20103;-66
2022/03/09 03:03:36;;;;;;;8.75;4.15;;;;;;;;;;4913875;29;20145;-66
2022/03/09 03:06:07;;;;;;;11.75;4.43;;;;;;;;;;4914000;29;20048;-65
2022/03/09 03:08:38;;;;;;;10.57;4.60;;;;;;;;;;4915575;29;20548;-66
2022/03/09 03:11:09;;;;;;;10.38;4.10;;;;;;;;;;4913143;29;20313;-66
2022/03/09 03:13:40;;;;;;;6.43;3.78;;;;;;;;;;4911232;29;20080;-66
2022/03/09 03:16:08;;;;;;;8.68;3.92;;;;;;;;;;4913860;29;20135;-65
2022/03/09 03:18:38;;;;;;;8.10;4.10;;;;;;;;;;4908257;29;20473;-66
2022/03/09 03:21:10;;;;;;;15.13;4.70;;;;;;;;;;4930931;29;20170;-65
2022/03/09 03:23:38;;;;;;;9.85;3.90;;;;;;;;;;4930227;29;20150;-65
2022/03/09 03:26:07;;;;;;;10.38;4.47;;;;;;;;;;4931368;29;20139;-65
2022/03/09 03:28:36;;;;;;;16.50;4.55;;;;;;;;;;4932033;29;20130;-67
2022/03/09 03:31:08;;;;;;;12.38;4.40;;;;;;;;;;4930757;29;20146;-65
2022/03/09 03:33:36;;;;;;;10.15;4.50;;;;;;;;;;4932522;29;20047;-65
2022/03/09 03:36:07;;;;;;;11.15;4.97;;;;;;;;;;4931467;29;20134;-65
2022/03/09 03:38:36;;;;;;;11.48;3.83;;;;;;;;;;4929252;29;20054;-66
2022/03/09 03:41:07;;;;;;;6.80;3.58;;;;;;;;;;4931638;29;20457;-65
2022/03/09 03:43:35;;;;;;;9.60;4.55;;;;;;;;;;4931885;29;20079;-65
2022/03/09 03:46:08;;;;;;;10.48;4.57;;;;;;;;;;4931256;29;20261;-65
2022/03/09 03:48:36;;;;;;;8.45;4.45;;;;;;;;;;4929004;29;20560;-66
2022/03/09 03:51:07;;;;;;;11.48;5.85;;;;;;;;;;4931365;29;20056;-65
2022/03/09 03:53:36;;;;;;;10.77;5.05;;;;;;;;;;4926066;29;20107;-65
2022/03/09 03:56:08;;;;;;;12.85;5.07;;;;;;;;;;4930180;29;20047;-65
2022/03/09 03:58:37;;;;;;;12.23;4.78;;;;;;;;;;4931570;29;20047;-65
2022/03/09 04:01:10;;;;;;;16.08;5.50;;;;;;;;;;4930704;29;20086;-65
2022/03/09 04:03:38;;;;;;;12.93;5.20;;;;;;;;;;4929090;29;20055;-65
2022/03/09 04:06:06;;;;;;;13.48;5.15;;;;;;;;;;4931571;29;20048;-65
2022/03/09 04:08:36;;;;;;;9.95;4.70;;;;;;;;;;4929331;29;20417;-65
2022/03/09 04:11:12;;;;;;;9.02;3.80;;;;;;;;;;4931281;29;20127;-65
2022/03/09 04:13:42;;;;;;;10.27;4.32;;;;;;;;;;4930789;29;20051;-65
2022/03/09 04:16:12;;;;;;;10.13;4.50;;;;;;;;;;4931024;29;20483;-65
2022/03/09 04:18:40;;;;;;;14.85;4.82;;;;;;;;;;4930763;29;20054;-66
2022/03/09 04:21:09;;;;;;;13.82;4.78;;;;;;;;;;4926450;29;20143;-65
2022/03/09 04:23:37;;;;;;;14.38;4.82;;;;;;;;;;4929490;29;20138;-65
2022/03/09 04:26:10;;;;;;;13.55;4.78;;;;;;;;;;4934724;29;20067;-65
2022/03/09 04:28:38;;;;;;;14.13;5.15;;;;;;;;;;4929132;29;20044;-65
2022/03/09 04:31:07;;;;;;;14.13;5.40;;;;;;;;;;4930269;29;20051;-65
2022/03/09 04:33:37;;;;;;;13.50;4.15;;;;;;;;;;4930111;29;20055;-65
2022/03/09 04:36:10;;;;;;;10.10;4.38;;;;;;;;;;4926873;29;20052;-65
2022/03/09 04:38:38;;;;;;;15.18;4.70;;;;;;;;;;4925402;29;20126;-65
2022/03/09 04:41:09;;;;;;;8.35;4.57;;;;;;;;;;4930815;29;20055;-65
2022/03/09 04:43:38;;;;;;;14.43;5.45;;;;;;;;;;4931005;29;20056;-65
2022/03/09 04:46:09;;;;;;;12.07;5.68;;;;;;;;;;4931472;29;20151;-65
2022/03/09 04:48:39;;;;;;;12.00;4.25;;;;;;;;;;4926774;29;20066;-66
2022/03/09 04:51:08;;;;;;;17.27;4.88;;;;;;;;;;4929323;29;20143;-65
2022/03/09 04:53:36;;;;;;;13.23;4.60;;;;;;;;;;4929185;29;20056;-65
2022/03/09 04:56:07;;;;;;;9.43;4.22;;;;;;;;;;4930066;29;20084;-65
2022/03/09 04:58:36;;;;;;;13.23;5.13;;;;;;;;;;4927836;29;20165;-65
2022/03/09 05:01:08;;;;;;;11.13;4.57;;;;;;;;;;4930386;29;20401;-65
2022/03/09 05:03:37;;;;;;;9.85;4.50;;;;;;;;;;4933610;29;20052;-65
2022/03/09 05:06:10;;;;;;;9.95;4.38;;;;;;;;;;4932447;29;20047;-65
2022/03/09 05:08:39;;;;;;;15.00;5.88;;;;;;;;;;4933662;29;20058;-65
2022/03/09 05:11:07;;;;;;;6.97;3.85;;;;;;;;;;4934730;29;20146;-65
2022/03/09 05:13:35;;;;;;;12.63;4.88;;;;;;;;;;4933403;29;20047;-65
2022/03/09 05:16:11;;;;;;;14.10;5.72;;;;;;;;;;4934009;29;20083;-65
2022/03/09 05:18:41;;;;;;;9.20;4.45;;;;;;;;;;4931792;29;20056;-66
2022/03/09 05:21:11;;;;;;;10.23;4.22;;;;;;;;;;4927062;29;20146;-65
2022/03/09 05:23:39;;;;;;;8.93;4.22;;;;;;;;;;4929893;29;20703;-65
2022/03/09 05:26:07;;;;;;;12.27;4.60;;;;;;;;;;4930344;29;20071;-65
2022/03/09 05:28:39;;;;;;;12.02;4.55;;;;;;;;;;4931257;29;20135;-66
2022/03/09 05:31:07;;;;;;;19.35;5.22;;;;;;;;;;4932070;29;20147;-65
2022/03/09 05:33:36;;;;;;;10.38;5.15;;;;;;;;;;4931982;29;20043;-65
2022/03/09 05:36:08;;;;;;;11.13;4.68;;;;;;;;;;4932621;29;20078;-66
2022/03/09 05:38:38;;;;;;;14.45;4.85;;;;;;;;;;4929549;29;20051;-67
2022/03/09 05:41:06;;;;;;;11.05;4.93;;;;;;;;;;4926252;29;20043;-66
2022/03/09 05:43:35;;;;;;;11.10;4.30;;;;;;;;;;4931321;29;20421;-66
2022/03/09 05:46:07;;;;;;;12.20;5.72;;;;;;;;;;4932130;29;20493;-66
2022/03/09 05:48:36;;;;;;;9.13;4.90;;;;;;;;;;4933402;29;20584;-67
2022/03/09 05:51:07;;;;;;;13.27;4.88;;;;;;;;;;4933783;29;20059;-66
2022/03/09 05:53:36;;;;;;;12.90;5.28;;;;;;;;;;4931742;29;20059;-66
2022/03/09 05:56:09;;;;;;;16.20;5.15;;;;;;;;;;4934550;29;20496;-66
2022/03/09 05:58:37;;;;;;;13.05;5.22;;;;;;;;;;4932492;29;20052;-67
2022/03/09 06:01:08;;;;;;;10.30;4.63;;;;;;;;;;4934175;29;20051;-66
2022/03/09 06:03:37;;;;;;;14.77;5.40;;;;;;;;;;4929876;29;20118;-67
2022/03/09 06:06:08;;;;;;;10.85;4.70;;;;;;;;;;4931685;29;20102;-67
2022/03/09 06:08:37;;;;;;;12.40;5.10;;;;;;;;;;4930460;29;20093;-67
2022/03/09 06:11:10;;;;;;;10.20;4.85;;;;;;;;;;4929363;29;20142;-67
2022/03/09 06:13:38;;;;;;;12.48;4.88;;;;;;;;;;4925892;29;20118;-66
2022/03/09 06:16:07;;;;;;;11.20;5.10;;;;;;;;;;4928336;29;20175;-67
2022/03/09 06:18:36;;;;;;;13.15;5.25;;;;;;;;;;4923212;29;20056;-67
2022/03/09 06:21:07;;;;;;;13.90;5.30;;;;;;;;;;4927814;29;20048;-66
2022/03/09 06:23:36;;;;;;;15.88;5.68;;;;;;;;;;4930922;29;20563;-67
2022/03/09 06:26:07;;;;;;;11.85;4.68;;;;;;;;;;4933184;29;20142;-67
2022/03/09 06:28:37;;;;;;;16.95;6.15;;;;;;;;;;4930709;29;20106;-67
2022/03/09 06:31:09;;;;;;;13.38;4.90;;;;;;;;;;4911234;29;20052;-67
2022/03/09 06:33:37;;;;;;;10.07;5.15;;;;;;;;;;4915107;29;20052;-67
2022/03/09 06:36:09;;;;;;;12.40;5.40;;;;;;;;;;4915119;29;20059;-67
2022/03/09 06:38:37;;;;;;;17.23;6.28;;;;;;;;;;4911291;29;20445;-66
2022/03/09 06:41:09;;;;;;;11.32;5.22;;;;;;;;;;4909499;29;20573;-66
2022/03/09 06:43:39;;;;;;;16.52;5.13;;;;;;;;;;4914181;29;20138;-65
2022/03/09 06:46:07;;;;;;;16.15;6.05;;;;;;;;;;4909109;29;20135;-65
2022/03/09 06:48:37;;;;;;;14.52;5.88;;;;;;;;;;4911185;29;20040;-66
2022/03/09 06:51:08;;;;;;;9.88;5.13;;;;;;;;;;4913718;29;20120;-66
2022/03/09 06:53:38;;;;;;;12.30;5.55;;;;;;;;;;4913366;29;20059;-66
2022/03/09 06:56:07;;;;;;;11.75;5.82;;;;;;;;;;4908364;29;20048;-66
2022/03/09 06:58:36;;;;;;;9.45;5.10;;;;;;;;;;4913127;29;20064;-66
2022/03/09 07:01:09;;;;;;;16.33;5.63;;;;;;;;;;4932806;29;20508;-66
2022/03/09 07:03:38;;;;;;;15.10;5.75;;;;;;;;;;4934649;29;20101;-66
2022/03/09 07:06:12;;;;;;;18.07;6.20;;;;;;;;;;4927031;29;20078;-66
2022/03/09 07:08:41;;;;;;;15.00;6.47;;;;;;;;;;4932930;29;20078;-66
2022/03/09 07:11:09;;;;;;;17.50;6.53;;;;;;;;;;4929495;29;20066;-66
2022/03/09 07:13:38;;;;;;;21.27;6.30;;;;;;;;;;4934397;29;20052;-66
2022/03/09 07:16:06;;;;;;;8.85;4.60;;;;;;;;;;4934208;29;20075;-66
2022/03/09 07:18:37;;;;;;;18.23;6.03;;;;;;;;;;4933513;29;20119;-67
2022/03/09 07:21:08;;;;;;;12.93;5.70;;;;;;;;;;4916493;29;20060;-66
2022/03/09 07:23:37;;;;;;;16.35;6.75;;;;;;;;;;4916292;29;20155;-66
2022/03/09 07:26:09;;;;;;;16.27;6.35;;;;;;;;;;4913269;29;20567;-66
2022/03/09 07:28:37;;;;;;;12.38;5.75;;;;;;;;;;4912531;29;20059;-66
2022/03/09 07:31:09;;;;;;;18.02;6.63;;;;;;;;;;4913697;29;20089;-66
2022/03/09 07:33:39;;;;;;;13.02;5.75;;;;;;;;;;4913828;29;20056;-66
2022/03/09 07:36:08;;;;;;;13.95;5.63;;;;;;;;;;4911067;29;20054;-66
2022/03/09 07:38:42;;;;;;;14.25;5.88;;;;;;;;;;4909049;29;20052;-66
2022/03/09 07:41:31;;;;;;;14.50;5.55;;;;;;;;;;4910840;29;20048;-66
2022/03/09 07:44:01;;;;;;;12.77;6.43;;;;;;;;;;4912395;29;20056;-66
2022/03/09 07:46:29;;;;;;;14.55;5.65;;;;;;;;;;4910152;29;20048;-66
2022/03/09 07:48:59;;;;;;;9.60;5.28;;;;;;;;;;4912896;29;20225;-66
2022/03/09 07:51:28;;;;;;;18.75;5.95;;;;;;;;;;4910934;29;20298;-66
2022/03/09 07:53:56;;;;;;;13.52;5.68;;;;;;;;;;4910285;29;20056;-66
2022/03/09 07:56:24;;;;;;;12.48;5.90;;;;;;;;;;4912453;29;20146;-66
2022/03/09 07:58:53;;;;;;;18.95;6.10;;;;;;;;;;4913197;29;20150;-67
2022/03/09 08:01:21;;;;;;;11.13;5.32;;;;;;;;;;4934627;29;20055;-67
2022/03/09 08:03:50;;;;;;;14.73;6.22;;;;;;;;;;4931023;29;20056;-66
2022/03/09 08:06:20;;;;;;;11.68;5.57;;;;;;;;;;4923826;29;20067;-66
2022/03/09 08:08:49;;;;;;;12.88;6.35;;;;;;;;;;4930563;29;20043;-66
2022/03/09 08:11:17;;;;;;;19.75;6.00;;;;;;;;;;4932024;29;20051;-66
2022/03/09 08:13:46;;;;;;;15.18;5.93;;;;;;;;;;4927708;29;20141;-66
2022/03/09 08:16:15;;;;;;;15.95;6.07;;;;;;;;;;4930263;29;20052;-66
2022/03/09 08:18:44;;;;;;;10.48;5.28;;;;;;;;;;4929223;29;20051;-67
2022/03/09 08:21:12;;;;;;;13.90;5.18;;;;;;;;;;4932683;29;20142;-67
2022/03/09 08:23:42;;;;;;;16.92;6.60;;;;;;;;;;4931713;29;20043;-66
2022/03/09 08:26:12;;;;;;;14.07;6.95;;;;;;;;;;4928094;29;20110;-67
2022/03/09 08:28:41;;;;;;;13.35;5.45;;;;;;;;;;4930811;29;20445;-67
2022/03/09 08:31:10;;;;;;;11.48;5.15;;;;;;;;;;4926509;29;20531;-67
2022/03/09 08:33:39;;;;;;;21.40;5.95;;;;;;;;;;4931185;29;20051;-67
2022/03/09 08:36:07;;;;;;;18.00;5.43;;;;;;;;;;4929604;29;20790;-67
2022/03/09 08:38:36;;;;;;;12.20;5.63;;;;;;;;;;4930456;29;20559;-67
2022/03/09 08:41:10;;;;;;;13.30;6.00;;;;;;;;;;4911374;29;20063;-67
2022/03/09 08:43:39;;;;;;;17.17;5.97;;;;;;;;;;4910645;29;20106;-66
2022/03/09 08:46:08;;;;;;;14.65;6.35;;;;;;;;;;4909929;29;20433;-66
2022/03/09 08:48:38;;;;;;;14.13;5.30;;;;;;;;;;4910412;29;20124;-67
2022/03/09 08:51:08;;;;;;;12.20;6.15;;;;;;;;;;4907560;29;20422;-67
2022/03/09 08:53:37;;;;;;;13.77;5.78;;;;;;;;;;4909498;29;20080;-66
2022/03/09 08:56:10;;;;;;;14.27;5.75;;;;;;;;;;4910820;29;20056;-66
2022/03/09 08:58:38;;;;;;;14.73;6.63;;;;;;;;;;4910989;29;20496;-67
2022/03/09 09:01:07;;;;;;;10.57;5.20;;;;;;;;;;4914983;29;20131;-66
2022/03/09 09:03:56;;;;;;;12.23;6.47;;;;;;;;;;4912332;29;20565;-67
2022/03/09 09:06:26;;;;;;;16.05;6.10;;;;;;;;;;4912130;29;20055;-66
2022/03/09 09:08:55;;;;;;;14.93;5.88;;;;;;;;;;4909428;29;20139;-66
2022/03/09 09:11:25;;;;;;;12.88;6.10;;;;;;;;;;4910580;29;20535;-66
2022/03/09 09:13:54;;;;;;;15.23;6.32;;;;;;;;;;4909418;29;20127;-66
2022/03/09 09:16:23;;;;;;;13.98;6.35;;;;;;;;;;4909025;29;20048;-66
2022/03/09 09:18:52;;;;;;;12.88;6.18;;;;;;;;;;4907900;29;20044;-66
2022/03/09 09:21:20;;;;;;;11.80;6.18;;;;;;;;;;4911452;29;20404;-66
2022/03/09 09:23:49;;;;;;;11.60;5.10;;;;;;;;;;4911001;29;20107;-66
2022/03/09 09:26:18;;;;;;;11.75;5.72;;;;;;;;;;4910370;29;20087;-66
2022/03/09 09:29:09;;;;;;;13.65;5.85;;;;;;;;;;4905583;29;20104;-66
2022/03/09 09:31:37;;;;;;;14.48;6.05;;;;;;;;;;4910673;29;21902;-66
2022/03/09 09:34:07;;;;;;;10.00;5.70;;;;;;;;;;4911773;29;20576;-66
2022/03/09 09:36:36;;;;;;;10.90;5.53;;;;;;;;;;4911400;29;20052;-66
2022/03/09 09:39:05;;;;;;;12.15;6.00;;;;;;;;;;4909123;29;20059;-66
2022/03/09 09:41:34;;;;;;;11.40;5.43;;;;;;;;;;4910980;29;20524;-67
2022/03/09 09:44:05;;;;;;;10.70;5.25;;;;;;;;;;4906329;29;20048;-67
2022/03/09 09:46:35;;;;;;;11.45;5.82;;;;;;;;;;4908061;29;20052;-67
2022/03/09 09:49:04;;;;;;;13.75;5.00;;;;;;;;;;4910435;29;20535;-65
2022/03/09 09:51:33;;;;;;;7.55;4.40;;;;;;;;;;4914215;29;20048;-66
2022/03/09 09:54:02;;;;;;;11.73;5.60;;;;;;;;;;4913320;29;20408;-65
2022/03/09 09:56:31;;;;;;;9.85;4.82;;;;;;;;;;4914528;29;20054;-65
2022/03/09 09:59:00;;;;;;;12.05;5.13;;;;;;;;;;4912230;29;20044;-65
2022/03/09 10:01:29;;;;;;;11.82;5.18;;;;;;;;;;4911294;29;20043;-65
2022/03/09 10:04:01;;;;;;;13.20;5.72;;;;;;;;;;4915047;29;20075;-66
2022/03/09 10:06:30;;;;;;;9.10;4.35;;;;;;;;;;4915342;29;20135;-65
2022/03/09 10:09:02;;;;;;;11.27;4.70;;;;;;;;;;4914254;29;20044;-65
2022/03/09 10:11:51;;;;;;;12.27;4.90;;;;;;;;;;4915911;29;20498;-65
2022/03/09 10:14:20;;;;;;;8.70;4.13;;;;;;;;;;4914907;29;20051;-66
2022/03/09 10:17:03;;;;;;;9.30;4.85;;;;;;;;;;4911685;29;20056;-65
2022/03/09 10:19:35;;;;;;;8.52;4.55;;;;;;;;;;4924160;29;20095;-65
2022/03/09 10:22:18;;;;;;;11.60;5.05;;;;;;;;;;4930827;29;20562;-65
2022/03/09 10:25:18;;;;;;;8.80;4.55;;;;;;;;;;4930360;29;20489;-66
2022/03/09 10:27:48;;;;;;;10.32;4.80;;;;;;;;;;4932546;29;20051;-66
2022/03/09 10:30:18;;;;;;;11.20;5.03;;;;;;;;;;4925851;29;20083;-66
2022/03/09 10:32:48;;;;;;;7.88;4.47;;;;;;;;;;4929595;29;20051;-66
2022/03/09 10:35:20;;;;;;;12.02;5.07;;;;;;;;;;4934967;29;20409;-66
2022/03/09 10:37:49;;;;;;;9.50;4.70;;;;;;;;;;4932831;29;20075;-66
2022/03/09 10:40:19;;;;;;;10.20;4.57;;;;;;;;;;4928759;29;20051;-66
2022/03/09 10:42:48;;;;;;;8.93;4.43;;;;;;;;;;4932953;29;20062;-66
2022/03/09 10:45:17;;;;;;;9.55;4.47;;;;;;;;;;4932402;29;20048;-66
2022/03/09 10:47:46;;;;;;;6.47;4.13;;;;;;;;;;4931543;29;20068;-66
2022/03/09 10:50:17;;;;;;;13.15;4.78;;;;;;;;;;4929560;29;20052;-66
2022/03/09 10:52:48;;;;;;;10.35;4.38;;;;;;;;;;4932205;29;20055;-66
2022/03/09 10:55:21;;;;;;;6.43;3.75;;;;;;;;;;4933987;29;20192;-67
2022/03/09 10:57:50;;;;;;;10.32;4.35;;;;;;;;;;4931738;29;20527;-66
2022/03/09 11:00:34;;;;;;;9.02;4.82;;;;;;;;;;4931921;29;20055;-67
2022/03/09 11:03:06;;;;;;;8.48;4.45;;;;;;;;;;4930880;29;20071;-67
2022/03/09 11:05:35;;;;;;;9.05;4.75;;;;;;;;;;4930290;29;20055;-66
2022/03/09 11:08:05;;;;;;;9.82;4.95;;;;;;;;;;4932444;29;20063;-67
2022/03/09 11:10:34;;;;;;;9.50;4.55;;;;;;;;;;4929515;29;20186;-67
2022/03/09 11:13:03;;;;;;;7.93;4.40;;;;;;;;;;4932604;29;20059;-67
2022/03/09 11:15:32;;;;;;;6.88;4.28;;;;;;;;;;4932988;29;20098;-67
2022/03/09 11:18:01;;;;;;;11.77;4.47;;;;;;;;;;4932802;29;20516;-66
2022/03/09 11:20:30;;;;;;;11.13;5.25;;;;;;;;;;4914654;29;20048;-66
2022/03/09 11:22:59;;;;;;;8.05;4.88;;;;;;;;;;4906202;29;20273;-66
2022/03/09 11:25:30;;;;;;;7.20;4.13;;;;;;;;;;4909097;29;20520;-66
2022/03/09 11:27:59;;;;;;;10.02;4.82;;;;;;;;;;4909028;29;20244;-66
2022/03/09 11:30:29;;;;;;;7.45;4.28;;;;;;;;;;4910752;29;20130;-66
2022/03/09 11:32:58;;;;;;;10.98;4.43;;;;;;;;;;4912322;29;20088;-66
2022/03/09 11:35:38;;;;;;;9.65;4.40;;;;;;;;;;4912866;29;20058;-66
2022/03/09 11:38:21;;;;;;;8.55;3.80;;;;;;;;;;4911263;29;20104;-66
2022/03/09 11:41:07;;;;;;;6.60;3.50;;;;;;;;;;4909070;29;20052;-66
2022/03/09 11:43:39;;;;;;;11.02;4.00;;;;;;;;;;4911848;29;20047;-67
2022/03/09 11:46:08;;;;;;;9.32;4.53;;;;;;;;;;4912864;29;20054;-66
2022/03/09 11:48:50;;;;;;;7.72;3.65;;;;;;;;;;4911637;29;20056;-66
2022/03/09 11:51:19;;;;;;;8.30;4.63;;;;;;;;;;4904435;29;20492;-66
2022/03/09 11:53:50;;;;;;;9.43;4.35;;;;;;;;;;4930124;29;20055;-66
2022/03/09 11:56:41;;;;;;;7.93;4.65;;;;;;;;;;4932797;29;20051;-67
2022/03/09 11:59:29;;;;;;;9.55;4.68;;;;;;;;;;4932733;29;20052;-67
2022/03/09 12:02:15;;;;;;;8.45;4.38;;;;;;;;;;4928265;29;20079;-67
2022/03/09 12:04:53;;;;;;;8.27;4.88;;;;;;;;;;4926456;29;20060;-67
2022/03/09 12:07:42;;;;;;;7.80;4.57;;;;;;;;;;4929935;29;20599;-66
2022/03/09 12:10:11;;;;;;;8.35;4.43;;;;;;;;;;4932180;29;20044;-67
2022/03/09 12:13:01;;;;;;;12.00;5.15;;;;;;;;;;4929296;29;20083;-67
2022/03/09 12:15:36;;;;;;;10.27;4.63;;;;;;;;;;4925878;29;20544;-66
2022/03/09 12:18:27;;;;;;;9.15;4.43;;;;;;;;;;4926510;29;20048;-66
2022/03/09 12:20:56;;;;;;;8.05;4.20;;;;;;;;;;4926896;29;20057;-67
2022/03/09 12:23:25;;;;;;;7.07;4.18;;;;;;;;;;4923300;29;20134;-67
2022/03/09 12:25:56;;;;;;;10.93;4.47;;;;;;;;;;4926189;29;20079;-67
2022/03/09 12:28:44;;;;;;;9.75;4.78;;;;;;;;;;4928078;29;20066;-67
2022/03/09 12:31:26;;;;;;;7.22;3.72;;;;;;;;;;4908890;29;20496;-66
2022/03/09 12:33:55;;;;;;;9.50;4.25;;;;;;;;;;4928840;29;20052;-67
2022/03/09 12:36:25;;;;;;;8.30;4.47;;;;;;;;;;4927936;29;20079;-67
2022/03/09 12:38:59;;;;;;;8.68;4.20;;;;;;;;;;4929130;29;20070;-66
2022/03/09 12:41:30;;;;;;;7.57;4.10;;;;;;;;;;4928578;29;20059;-66
2022/03/09 12:44:00;;;;;;;10.18;4.60;;;;;;;;;;4933230;29;20048;-66
2022/03/09 12:46:31;;;;;;;7.10;4.28;;;;;;;;;;4928118;29;20055;-66
2022/03/09 12:49:04;;;;;;;7.68;3.75;;;;;;;;;;4929077;29;20060;-66
2022/03/09 12:51:34;;;;;;;6.88;4.13;;;;;;;;;;4928134;29;20063;-66
2022/03/09 12:54:48;;;;;;;7.85;3.70;;;;;;;;;;4929973;29;20186;-66
2022/03/09 12:57:19;;;;;;;6.72;4.15;;;;;;;;;;4909598;29;20048;-66
2022/03/09 12:59:54;;;;;;;7.60;4.60;;;;;;;;;;4926420;29;20078;-66
2022/03/09 13:02:25;;;;;;;7.82;4.13;;;;;;;;;;4928688;29;20448;-67
2022/03/09 13:04:57;;;;;;;6.90;3.83;;;;;;;;;;4928495;29;20098;-66
2022/03/09 13:07:26;;;;;;;7.45;4.20;;;;;;;;;;4920638;29;20043;-67
2022/03/09 13:10:05;;;;;;;7.50;4.15;;;;;;;;;;4920255;29;20074;-67
2022/03/09 13:12:34;;;;;;;8.45;3.97;;;;;;;;;;4927427;29;20044;-67
2022/03/09 13:15:04;;;;;;;8.20;3.70;;;;;;;;;;4910530;29;20426;-67
2022/03/09 13:17:44;;;;;;;5.65;3.63;;;;;;;;;;4909947;29;20055;-66
2022/03/09 13:20:13;;;;;;;7.82;4.13;;;;;;;;;;4895371;29;20067;-66
2022/03/09 13:22:42;;;;;;;7.72;3.53;;;;;;;;;;4889278;29;20618;-66
2022/03/09 13:25:11;;;;;;;7.00;3.95;;;;;;;;;;4892751;29;20614;-66
2022/03/09 13:27:40;;;;;;;6.82;4.03;;;;;;;;;;4898936;29;20072;-66
2022/03/09 13:30:12;;;;;;;7.68;3.58;;;;;;;;;;4893483;29;20052;-66
2022/03/09 13:32:43;;;;;;;8.25;4.10;;;;;;;;;;4902446;29;20074;-66
2022/03/09 13:35:17;;;;;;;9.05;3.97;;;;;;;;;;4907617;29;20167;-66
2022/03/09 13:37:46;;;;;;;8.68;3.53;;;;;;;;;;4909688;29;20051;-66
2022/03/09 13:40:15;;;;;;;6.28;3.33;;;;;;;;;;4908610;29;20048;-67
2022/03/09 13:42:44;;;;;;;5.40;3.50;;;;;;;;;;4906007;29;20052;-68
2022/03/09 13:45:13;;;;;;;6.53;3.40;;;;;;;;;;4906486;29;20044;-68
2022/03/09 13:47:50;;;;;;;5.78;3.38;;;;;;;;;;4906636;29;20095;-67
2022/03/09 13:50:20;;;;;;;6.40;3.30;;;;;;;;;;4906602;29;20057;-67
2022/03/09 13:52:49;;;;;;;5.25;3.13;;;;;;;;;;4911423;29;20481;-67
2022/03/09 13:55:26;;;;;;;6.18;3.10;;;;;;;;;;4911983;29;20084;-67
2022/03/09 13:58:01;;;;;;;6.85;3.47;;;;;;;;;;4907802;29;20508;-66
2022/03/09 14:00:36;;;;;;;8.43;3.45;;;;;;;;;;4927780;29;20058;-67
2022/03/09 14:03:10;;;;;;;6.47;3.40;;;;;;;;;;4928978;29;20059;-67
2022/03/09 14:05:58;;;;;;;6.47;4.03;;;;;;;;;;4926899;29;20441;-67
2022/03/09 14:08:27;;;;;;;5.53;3.35;;;;;;;;;;4932067;29;20143;-67
2022/03/09 14:11:13;;;;;;;8.60;3.33;;;;;;;;;;4910113;29;20564;-67
2022/03/09 14:13:41;;;;;;;;;;;;;;;;;;4910907;29;20564;-67
2022/03/09 14:16:10;;;;;;;4.25;2.78;;;;;;;;;;4911601;29;20363;-67
2022/03/09 14:18:41;;;;;;;7.57;3.38;;;;;;;;;;4915240;29;20485;-68
2022/03/09 14:21:09;;;;;;;7.20;3.28;;;;;;;;;;4927914;29;20051;-68
2022/03/09 14:23:39;;;;;;;5.00;2.88;;;;;;;;;;4933494;29;20127;-67
2022/03/09 14:26:08;;;;;;;5.18;3.10;;;;;;;;;;4926852;29;20500;-68
2022/03/09 14:28:37;;;;;;;4.90;2.58;;;;;;;;;;4927510;29;20054;-69
2022/03/09 14:31:08;;;;;;;5.75;2.88;;;;;;;;;;4927166;29;20048;-68
2022/03/09 14:33:37;;;;;;;3.78;2.65;;;;;;;;;;4928425;29;20143;-68
2022/03/09 14:36:10;;;;;;;7.13;2.65;;;;;;;;;;4940665;29;20051;-68
2022/03/09 14:38:40;;;;;;;5.93;2.40;;;;;;;;;;4932532;29;20059;-68
2022/03/09 14:41:09;;;;;;;4.65;2.15;;;;;;;;;;4924435;29;20122;-68
2022/03/09 14:43:38;;;;;;;5.40;2.33;;;;;;;;;;4931465;29;20142;-68
2022/03/09 14:46:09;;;;;;;3.85;2.30;;;;;;;;;;4931537;29;20099;-68
2022/03/09 14:48:38;;;;;;;4.63;2.33;;;;;;;;;;4934070;29;20054;-68
2022/03/09 14:51:11;;;;;;;5.57;2.55;;;;;;;;;;4932451;29;20107;-67
2022/03/09 14:53:40;;;;;;;3.88;2.30;;;;;;;;;;4929985;29;20054;-66
2022/03/09 14:56:10;;;;;;;3.97;2.22;;;;;;;;;;4927138;29;20056;-67
2022/03/09 14:58:39;;;;;;;4.72;2.45;;;;;;;;;;4929447;29;20460;-66
2022/03/09 15:01:08;;;;;;;3.50;2.28;;;;;;;;;;4934228;29;20052;-67